Time;durP1;ratioP1;P1;durP2;ratioP2;P2;SDS_P1;SDS_P2;PMS_P1;PMS_P2;Temp;Humidity;BMP_temperature;BMP_pressure;BME280_temperature;BME280_humidity;BME280_pressure;Samples;Min_cycle;Max_cycle;Signal;HPM_P1;HPM_P2
2020/12/27 10:51:04;;;;;;;2.92;0.55;;;17.60;68.80;;;;;;5145165;27;20361;-50
2020/12/27 10:53:30;;;;;;;2.45;0.70;;;17.60;69.20;;;;;;5145406;27;20403;-50
2020/12/27 10:55:55;;;;;;;2.08;0.80;;;17.70;69.00;;;;;;5147350;27;20031;-47
2020/12/27 10:58:21;;;;;;;3.88;0.68;;;17.80;68.70;;;;;;5142426;27;20035;-48
2020/12/27 11:00:47;;;;;;;1.65;0.70;;;17.90;68.50;;;;;;5145015;27;20045;-47
2020/12/27 11:03:13;;;;;;;0.50;0.32;;;17.90;68.20;;;;;;5141272;27;20482;-48
2020/12/27 11:05:39;;;;;;;2.05;0.70;;;17.90;68.20;;;;;;5146878;27;20039;-52
2020/12/27 11:08:05;;;;;;;3.38;0.60;;;18.00;68.60;;;;;;5146462;27;20161;-46
2020/12/27 11:10:31;;;;;;;1.73;0.88;;;18.00;67.60;;;;;;5132907;27;20098;-51
2020/12/27 11:12:57;;;;;;;1.67;0.80;;;18.00;67.50;;;;;;5090815;27;20048;-47
2020/12/27 11:15:22;;;;;;;0.90;0.60;;;18.10;68.00;;;;;;5099117;27;20043;-49
2020/12/27 11:17:48;;;;;;;1.80;0.77;;;18.20;67.10;;;;;;5102466;27;20036;-48
2020/12/27 11:20:14;;;;;;;5.78;0.60;;;18.30;66.70;;;;;;5107098;27;20043;-52
2020/12/27 11:22:42;;;;;;;3.40;0.50;;;18.40;66.60;;;;;;5112227;27;20410;-51
2020/12/27 11:25:08;;;;;;;1.08;0.65;;;18.40;66.50;;;;;;5088193;27;20050;-52
2020/12/27 11:27:33;;;;;;;2.35;0.80;;;18.40;66.40;;;;;;5112300;27;20040;-51
2020/12/27 11:29:59;;;;;;;1.55;0.68;;;18.50;66.20;;;;;;5119319;27;20477;-49
2020/12/27 11:32:24;;;;;;;1.45;0.60;;;18.30;66.20;;;;;;5101652;27;20044;-53
2020/12/27 11:34:50;;;;;;;1.42;0.60;;;18.40;66.50;;;;;;5103034;27;20049;-51
2020/12/27 11:37:16;;;;;;;1.30;0.50;;;18.50;65.90;;;;;;5109531;27;20048;-56
2020/12/27 11:39:41;;;;;;;9.50;1.02;;;18.70;65.30;;;;;;5098388;27;20075;-52
2020/12/27 11:42:07;;;;;;;6.05;0.50;;;18.70;65.00;;;;;;5097562;28;20465;-40
2020/12/27 11:44:33;;;;;;;1.00;0.52;;;18.80;64.70;;;;;;5116290;27;20051;-53
2020/12/27 11:47:02;;;;;;;2.15;0.95;;;18.90;64.70;;;;;;5102051;27;20059;-56
2020/12/27 11:49:27;;;;;;;1.55;0.50;;;18.80;64.30;;;;;;5103140;27;21591;-53
2020/12/27 11:51:53;;;;;;;1.65;1.20;;;18.90;64.20;;;;;;5109918;27;20043;-49
2020/12/27 11:54:18;;;;;;;1.40;0.50;;;18.80;64.10;;;;;;5098036;27;20081;-47
2020/12/27 11:56:44;;;;;;;2.42;0.80;;;18.60;64.60;;;;;;5100274;28;20036;-47
2020/12/27 11:59:11;;;;;;;3.03;0.65;;;18.70;65.00;;;;;;5099114;28;20511;-51
2020/12/27 12:01:37;;;;;;;1.90;0.80;;;18.70;64.50;;;;;;5095744;28;20041;-51
2020/12/27 12:04:02;;;;;;;1.85;0.70;;;18.90;64.10;;;;;;5084357;28;20552;-49
2020/12/27 12:06:29;;;;;;;0.70;0.68;;;18.90;63.90;;;;;;5095439;27;21141;-44
2020/12/27 12:08:55;;;;;;;0.70;0.63;;;18.90;63.70;;;;;;5086852;27;20142;-51
2020/12/27 12:11:20;;;;;;;1.80;0.50;;;19.00;64.60;;;;;;5081355;28;20123;-42
2020/12/27 12:13:46;;;;;;;2.92;0.60;;;18.90;63.40;;;;;;5086364;28;20060;-47
2020/12/27 12:16:19;;;;;;;2.80;0.80;;;18.90;63.80;;;;;;5083311;28;20043;-52
2020/12/27 12:18:45;;;;;;;1.75;0.63;;;18.80;64.30;;;;;;5085986;28;20070;-51
2020/12/27 12:21:11;;;;;;;2.45;0.68;;;18.80;64.50;;;;;;5082446;28;20067;-48
2020/12/27 12:23:37;;;;;;;0.82;0.40;;;18.80;64.30;;;;;;5085008;28;20047;-50
2020/12/27 12:26:03;;;;;;;0.98;0.43;;;18.80;64.40;;;;;;5086899;28;20032;-48
2020/12/27 12:28:28;;;;;;;1.38;0.50;;;18.90;64.20;;;;;;5087579;27;20067;-48
2020/12/27 12:30:54;;;;;;;1.30;0.70;;;18.80;64.70;;;;;;5092593;27;20048;-52
2020/12/27 12:33:19;;;;;;;0.68;0.32;;;18.90;63.40;;;;;;5081188;27;20041;-48
2020/12/27 12:35:45;;;;;;;0.98;0.75;;;18.90;63.80;;;;;;5083291;28;20139;-48
2020/12/27 12:38:11;;;;;;;1.92;0.40;;;18.90;63.40;;;;;;5084207;28;20051;-47
2020/12/27 12:40:36;;;;;;;2.05;0.70;;;19.00;63.20;;;;;;5083434;28;20422;-44
2020/12/27 12:43:02;;;;;;;3.05;0.70;;;18.80;63.30;;;;;;5080110;28;20048;-43
2020/12/27 12:45:28;;;;;;;2.45;0.45;;;18.90;63.40;;;;;;5064797;28;20097;-49
2020/12/27 12:47:53;;;;;;;4.15;1.02;;;18.90;63.60;;;;;;5083811;28;20086;-50
2020/12/27 12:50:19;;;;;;;5.15;0.80;;;18.90;63.50;;;;;;5087008;28;20055;-44
2020/12/27 12:52:44;;;;;;;3.63;0.90;;;18.90;63.60;;;;;;5105101;27;20048;-46
2020/12/27 12:55:10;;;;;;;3.78;1.25;;;18.90;63.50;;;;;;5094845;27;20082;-55
2020/12/27 12:57:35;;;;;;;2.45;0.75;;;18.90;63.80;;;;;;5081024;28;20054;-48
2020/12/27 13:00:01;;;;;;;5.00;1.02;;;18.90;63.70;;;;;;5103742;27;20040;-59
2020/12/27 13:02:27;;;;;;;2.25;0.75;;;18.90;63.80;;;;;;5086631;28;20048;-46
2020/12/27 13:04:52;;;;;;;1.63;0.93;;;18.90;64.10;;;;;;5086180;28;20052;-47
2020/12/27 13:07:18;;;;;;;1.33;1.10;;;18.90;64.00;;;;;;5085862;28;20527;-41
2020/12/27 13:09:44;;;;;;;4.20;1.02;;;18.90;64.00;;;;;;5083985;28;20071;-43
2020/12/27 13:12:09;;;;;;;5.95;1.13;;;18.90;63.60;;;;;;5083685;28;20126;-45
2020/12/27 13:14:35;;;;;;;2.78;1.35;;;18.90;63.80;;;;;;5084579;28;20526;-44
2020/12/27 13:17:00;;;;;;;4.00;0.98;;;18.90;63.90;;;;;;5091753;28;20112;-45
2020/12/27 13:19:26;;;;;;;4.22;0.90;;;19.00;63.70;;;;;;5072277;27;20151;-44
2020/12/27 13:21:51;;;;;;;4.45;0.90;;;19.00;64.00;;;;;;5097365;27;20052;-47
2020/12/27 13:24:17;;;;;;;1.85;1.05;;;19.10;63.70;;;;;;5081615;27;20056;-47
2020/12/27 13:26:43;;;;;;;2.47;1.00;;;19.30;63.40;;;;;;5082567;28;20051;-46
2020/12/27 13:29:10;;;;;;;5.05;1.23;;;19.40;62.90;;;;;;5078627;28;20143;-47
2020/12/27 13:31:43;;;;;;;2.13;1.39;;;19.50;62.70;;;;;;4997057;28;10001242;-43
2020/12/27 13:34:09;;;;;;;3.13;0.90;;;19.50;62.60;;;;;;5079453;28;20251;-46
2020/12/27 13:36:34;;;;;;;4.55;1.10;;;19.40;62.60;;;;;;5083469;28;20035;-52
2020/12/27 13:39:00;;;;;;;3.03;0.82;;;19.40;62.60;;;;;;5088276;28;20981;-44
2020/12/27 13:41:26;;;;;;;6.93;1.00;;;19.40;62.60;;;;;;5108589;27;20050;-43
2020/12/27 13:43:51;;;;;;;5.68;0.80;;;19.40;62.30;;;;;;5076620;28;20059;-49
2020/12/27 13:46:17;;;;;;;2.65;0.80;;;19.40;62.60;;;;;;5096062;27;20712;-46
2020/12/27 13:48:46;;;;;;;5.30;0.82;;;19.40;62.80;;;;;;5106613;27;20050;-46
2020/12/27 13:51:12;;;;;;;1.65;1.02;;;19.40;62.70;;;;;;5101937;27;20510;-50
2020/12/27 13:53:38;;;;;;;3.25;1.02;;;19.30;63.00;;;;;;5105339;27;20137;-55
2020/12/27 13:56:04;;;;;;;2.90;0.82;;;19.50;63.20;;;;;;5111092;27;20053;-50
2020/12/27 13:58:30;;;;;;;2.70;0.90;;;19.50;62.90;;;;;;5104037;28;20020;-54
2020/12/27 14:00:55;;;;;;;1.45;0.90;;;19.40;63.00;;;;;;5109519;27;20556;-46
2020/12/27 14:03:21;;;;;;;2.28;1.02;;;19.50;62.80;;;;;;5105379;27;20039;-47
2020/12/27 14:05:46;;;;;;;3.97;0.88;;;19.40;62.80;;;;;;5114202;27;20096;-52
2020/12/27 14:08:12;;;;;;;3.05;0.80;;;19.30;63.20;;;;;;5105818;28;20385;-47
2020/12/27 14:10:39;;;;;;;4.13;0.93;;;19.30;63.10;;;;;;5106253;27;20044;-45
2020/12/27 14:13:04;;;;;;;5.38;0.77;;;19.40;63.20;;;;;;5093389;27;20046;-43
2020/12/27 14:15:30;;;;;;;4.72;0.65;;;19.40;63.00;;;;;;5105019;27;20616;-52
2020/12/27 14:17:57;;;;;;;4.20;0.90;;;19.40;63.00;;;;;;5105082;27;20024;-52
2020/12/27 14:20:23;;;;;;;3.03;0.80;;;19.50;63.20;;;;;;5106955;27;20077;-45
2020/12/27 14:22:48;;;;;;;5.15;0.65;;;19.50;62.50;;;;;;5111373;27;20024;-47
2020/12/27 14:25:14;;;;;;;3.05;0.90;;;19.70;62.20;;;;;;5078152;28;20101;-45
2020/12/27 14:27:39;;;;;;;1.60;0.75;;;19.70;61.80;;;;;;5102681;27;20063;-47
2020/12/27 14:30:05;;;;;;;4.07;0.80;;;19.60;61.90;;;;;;5109509;27;20122;-50
2020/12/27 14:32:31;;;;;;;3.13;1.20;;;19.50;62.10;;;;;;5100330;27;20097;-42
2020/12/27 14:34:56;;;;;;;3.90;0.93;;;19.50;62.40;;;;;;5109569;27;20059;-50
2020/12/27 14:37:22;;;;;;;2.95;1.17;;;19.50;62.50;;;;;;5101118;27;20050;-52
2020/12/27 14:39:47;;;;;;;7.55;1.48;;;19.50;62.70;;;;;;5100505;28;20075;-45
2020/12/27 14:42:13;;;;;;;1.95;1.00;;;19.50;62.50;;;;;;5103404;28;20047;-53
2020/12/27 14:44:38;;;;;;;7.80;2.50;;;19.40;62.90;;;;;;5098778;27;20063;-56
2020/12/27 14:47:05;;;;;;;7.10;3.20;;;19.50;63.60;;;;;;5106425;27;20052;-42
2020/12/27 14:49:30;;;;;;;5.00;2.22;;;19.40;64.00;;;;;;5110968;28;20050;-46
2020/12/27 14:51:56;;;;;;;11.23;2.90;;;19.50;64.10;;;;;;5106960;28;20043;-49
2020/12/27 14:54:22;;;;;;;7.93;3.25;;;19.40;64.80;;;;;;5101513;28;20513;-54
2020/12/27 14:56:47;;;;;;;5.20;2.20;;;19.40;65.30;;;;;;5108448;28;20039;-42
2020/12/27 14:59:13;;;;;;;7.60;2.15;;;19.50;64.40;;;;;;5108823;27;20043;-54
2020/12/27 15:01:39;;;;;;;7.65;2.25;;;19.60;64.70;;;;;;5095205;28;20040;-48
2020/12/27 15:04:05;;;;;;;8.82;2.30;;;19.70;64.90;;;;;;5076971;28;20051;-47
2020/12/27 15:06:30;;;;;;;9.48;1.88;;;19.70;64.60;;;;;;5065824;28;20044;-46
2020/12/27 15:08:56;;;;;;;8.90;2.95;;;19.70;64.40;;;;;;5095545;28;20040;-46
2020/12/27 15:11:22;;;;;;;11.63;3.35;;;19.70;64.50;;;;;;5084891;27;20048;-43
2020/12/27 15:13:47;;;;;;;7.10;2.40;;;19.60;64.60;;;;;;5092554;27;20048;-46
2020/12/27 15:16:13;;;;;;;4.38;2.38;;;19.70;64.40;;;;;;5083274;28;20555;-50
2020/12/27 15:18:38;;;;;;;6.57;3.17;;;19.60;64.70;;;;;;5081245;28;20109;-48
2020/12/27 15:21:04;;;;;;;4.18;2.88;;;19.60;65.20;;;;;;5082321;27;20055;-50
2020/12/27 15:23:29;;;;;;;7.10;2.90;;;19.60;65.70;;;;;;5084752;28;20123;-57
2020/12/27 15:25:57;;;;;;;4.63;2.20;;;19.70;66.10;;;;;;5082667;28;20473;-46
2020/12/27 15:28:22;;;;;;;9.02;2.15;;;19.60;66.00;;;;;;5087158;28;20054;-54
2020/12/27 15:30:49;;;;;;;9.77;2.88;;;19.70;67.20;;;;;;5080657;28;20138;-47
2020/12/27 15:33:14;;;;;;;4.25;2.30;;;19.70;66.50;;;;;;5067103;28;20508;-51
2020/12/27 15:35:40;;;;;;;6.47;3.63;;;19.70;66.80;;;;;;5082896;28;20169;-46
2020/12/27 15:38:06;;;;;;;4.63;3.20;;;19.60;67.20;;;;;;5100415;27;20068;-48
2020/12/27 15:40:31;;;;;;;8.35;2.88;;;19.60;67.40;;;;;;5085663;27;20097;-54
2020/12/27 15:42:57;;;;;;;6.93;2.92;;;19.70;66.80;;;;;;5081376;28;20520;-48
2020/12/27 15:45:22;;;;;;;6.57;2.90;;;19.70;67.40;;;;;;5084923;28;20051;-41
2020/12/27 15:47:48;;;;;;;5.70;2.60;;;19.60;68.00;;;;;;5084238;28;20044;-52
2020/12/27 15:50:13;;;;;;;5.82;2.20;;;19.50;68.20;;;;;;5096443;27;20060;-48
2020/12/27 15:52:40;;;;;;;7.32;3.58;;;19.40;67.90;;;;;;5098906;27;20047;-46
2020/12/27 15:55:05;;;;;;;9.23;3.03;;;19.40;68.00;;;;;;5094588;27;20076;-50
2020/12/27 15:57:32;;;;;;;11.10;3.15;;;19.40;67.90;;;;;;5085054;28;20071;-49
2020/12/27 15:59:57;;;;;;;6.97;3.03;;;19.50;68.30;;;;;;5082229;28;20134;-55
2020/12/27 16:02:23;;;;;;;9.10;3.63;;;19.50;67.80;;;;;;5088302;28;20452;-52
2020/12/27 16:04:50;;;;;;;20.23;3.35;;;19.60;68.00;;;;;;5087463;28;20044;-48
2020/12/27 16:07:15;;;;;;;6.95;2.80;;;19.60;67.50;;;;;;5084010;28;20048;-46
2020/12/27 16:09:41;;;;;;;9.95;3.42;;;19.60;68.40;;;;;;5091594;27;20039;-51
2020/12/27 16:12:06;;;;;;;10.23;3.50;;;19.70;68.00;;;;;;5085337;28;20036;-52
2020/12/27 16:14:32;;;;;;;10.18;3.10;;;19.70;68.30;;;;;;5092952;28;20130;-46
2020/12/27 16:16:58;;;;;;;13.93;3.35;;;19.70;67.80;;;;;;5088724;27;20036;-49
2020/12/27 16:19:23;;;;;;;9.65;3.42;;;19.80;68.10;;;;;;5083600;28;20067;-46
2020/12/27 16:21:49;;;;;;;5.60;3.08;;;19.90;68.00;;;;;;5069872;27;20039;-47
2020/12/27 16:24:15;;;;;;;7.50;3.03;;;19.90;67.60;;;;;;5104013;27;20040;-46
2020/12/27 16:26:44;;;;;;;13.85;3.95;;;19.90;67.80;;;;;;5094329;27;20027;-48
2020/12/27 16:29:09;;;;;;;13.52;3.38;;;19.90;67.90;;;;;;5093042;27;20047;-50
2020/12/27 16:31:35;;;;;;;14.30;3.83;;;20.00;67.50;;;;;;5085607;28;20036;-45
2020/12/27 16:34:00;;;;;;;12.85;3.38;;;19.90;67.30;;;;;;5087637;28;20096;-43
2020/12/27 16:36:26;;;;;;;11.30;3.65;;;19.80;67.40;;;;;;5088815;28;20101;-46
2020/12/27 16:38:53;;;;;;;15.40;3.40;;;19.80;67.40;;;;;;5083243;27;20056;-44
2020/12/27 16:41:19;;;;;;;9.50;3.25;;;19.80;67.90;;;;;;5087461;28;20047;-43
2020/12/27 16:43:45;;;;;;;8.70;2.90;;;19.70;67.00;;;;;;5087491;28;20028;-42
2020/12/27 16:46:11;;;;;;;7.65;3.03;;;19.60;67.30;;;;;;5086327;28;20036;-45
2020/12/27 16:48:37;;;;;;;11.82;2.70;;;19.60;67.10;;;;;;5082948;28;20108;-43
2020/12/27 16:51:08;;;;;;;14.65;2.88;;;19.50;67.20;;;;;;5081005;28;20046;-45
2020/12/27 16:53:34;;;;;;;12.18;3.28;;;19.50;67.20;;;;;;5084680;28;20048;-43
2020/12/27 16:56:03;;;;;;;12.80;3.22;;;19.50;67.20;;;;;;5063583;28;20052;-44
2020/12/27 16:58:28;;;;;;;9.27;2.67;;;19.40;67.10;;;;;;5081857;28;20641;-43
2020/12/27 17:00:54;;;;;;;4.30;2.47;;;19.40;66.90;;;;;;5080955;28;20081;-44
2020/12/27 17:03:19;;;;;;;11.02;2.38;;;19.50;67.00;;;;;;5085269;28;20036;-43
2020/12/27 17:05:45;;;;;;;5.18;2.67;;;19.50;66.90;;;;;;5085682;27;20562;-39
2020/12/27 17:08:10;;;;;;;8.13;2.10;;;19.50;66.80;;;;;;5091760;28;20044;-45
2020/12/27 17:10:36;;;;;;;5.65;2.20;;;19.50;66.50;;;;;;5102645;27;20043;-51
2020/12/27 17:13:01;;;;;;;8.90;2.38;;;19.60;65.90;;;;;;5101338;27;20120;-45
2020/12/27 17:15:27;;;;;;;3.40;1.92;;;19.60;65.60;;;;;;5111829;27;22933;-45
2020/12/27 17:17:52;;;;;;;5.70;2.08;;;19.60;65.90;;;;;;5106231;27;20108;-43
2020/12/27 17:20:18;;;;;;;11.15;2.25;;;19.70;65.40;;;;;;5106505;27;20047;-46
2020/12/27 17:22:44;;;;;;;15.60;9.18;;;19.70;65.30;;;;;;5106714;27;20085;-43
2020/12/27 17:25:09;;;;;;;935.58;284.30;;;19.70;65.00;;;;;;5102666;27;20126;-44
2020/12/27 17:27:35;;;;;;;370.48;95.80;;;19.70;64.90;;;;;;5108956;27;20858;-44
2020/12/27 17:30:00;;;;;;;470.20;122.65;;;19.80;65.00;;;;;;5105125;27;20059;-44
2020/12/27 17:32:26;;;;;;;410.08;108.50;;;19.90;64.40;;;;;;5109160;27;20100;-43
2020/12/27 17:34:53;;;;;;;349.42;90.25;;;19.80;64.40;;;;;;5107804;27;20079;-42
2020/12/27 17:37:18;;;;;;;272.45;72.72;;;19.80;64.40;;;;;;5108335;27;20047;-43
2020/12/27 17:39:44;;;;;;;259.83;68.90;;;19.80;64.40;;;;;;5111023;27;20044;-48
2020/12/27 17:42:09;;;;;;;246.00;63.65;;;19.80;64.00;;;;;;5106852;27;20067;-42
2020/12/27 17:44:35;;;;;;;237.25;62.38;;;19.80;64.00;;;;;;5111560;27;20084;-47
2020/12/27 17:47:00;;;;;;;218.82;58.65;;;19.80;64.10;;;;;;5107584;27;20545;-40
2020/12/27 17:49:26;;;;;;;210.32;54.53;;;19.80;63.80;;;;;;5108823;27;20053;-41
2020/12/27 17:51:52;;;;;;;220.38;58.00;;;19.80;63.70;;;;;;5109313;27;20054;-42
2020/12/27 17:54:17;;;;;;;251.00;75.95;;;19.80;63.50;;;;;;5101682;27;20495;-46
2020/12/27 17:56:43;;;;;;;408.05;164.82;;;19.80;63.30;;;;;;5108256;27;20051;-42
2020/12/27 17:59:09;;;;;;;309.65;113.40;;;19.90;63.40;;;;;;5108135;28;20126;-42
2020/12/27 18:01:34;;;;;;;304.10;115.00;;;19.70;63.40;;;;;;5110991;27;20583;-47
2020/12/27 18:04:00;;;;;;;279.30;105.70;;;19.50;63.40;;;;;;5107326;27;20545;-42
2020/12/27 18:06:25;;;;;;;239.68;83.43;;;19.60;63.20;;;;;;5106619;27;20028;-49
2020/12/27 18:08:52;;;;;;;238.20;83.40;;;19.60;63.10;;;;;;5108160;27;20070;-52
2020/12/27 18:11:19;;;;;;;217.50;76.85;;;19.60;62.70;;;;;;5111901;27;20044;-44
2020/12/27 18:13:44;;;;;;;224.10;82.90;;;19.60;62.70;;;;;;5112796;27;20040;-43
2020/12/27 18:16:10;;;;;;;212.55;75.38;;;19.60;62.60;;;;;;5104878;27;20510;-42
2020/12/27 18:18:36;;;;;;;205.82;75.03;;;19.60;62.60;;;;;;5104318;27;20130;-45
2020/12/27 18:21:02;;;;;;;183.07;67.47;;;19.60;62.40;;;;;;5104216;28;20060;-45
2020/12/27 18:23:28;;;;;;;191.27;68.05;;;19.70;62.10;;;;;;5109375;27;20047;-42
2020/12/27 18:25:53;;;;;;;180.40;64.20;;;19.60;62.00;;;;;;5109229;27;20056;-45
2020/12/27 18:28:19;;;;;;;191.93;72.63;;;19.60;62.40;;;;;;5093390;27;20051;-42
2020/12/27 18:30:45;;;;;;;167.65;60.17;;;19.70;61.60;;;;;;5109102;27;20051;-45
2020/12/27 18:33:10;;;;;;;159.55;59.25;;;19.80;61.70;;;;;;5110109;27;20028;-44
2020/12/27 18:35:36;;;;;;;161.55;56.00;;;19.80;61.50;;;;;;5112423;27;20031;-44
2020/12/27 18:38:02;;;;;;;149.10;55.20;;;19.80;61.20;;;;;;5114569;27;20521;-43
2020/12/27 18:40:27;;;;;;;134.35;50.83;;;19.90;61.10;;;;;;5111217;28;20485;-43
2020/12/27 18:42:53;;;;;;;153.73;56.95;;;19.80;61.00;;;;;;5111563;27;20036;-42
2020/12/27 18:45:18;;;;;;;140.18;52.88;;;19.90;61.10;;;;;;5105141;28;20027;-43
2020/12/27 18:47:44;;;;;;;141.90;53.28;;;19.90;61.10;;;;;;5107140;27;20027;-45
2020/12/27 18:50:09;;;;;;;136.05;54.47;;;19.90;61.00;;;;;;5112941;28;20047;-45
2020/12/27 18:52:35;;;;;;;143.07;53.67;;;19.90;61.70;;;;;;5106859;28;20540;-42
2020/12/27 18:55:00;;;;;;;136.32;54.50;;;19.90;60.80;;;;;;5111659;28;20027;-45
2020/12/27 18:57:26;;;;;;;141.18;55.53;;;20.00;61.00;;;;;;5106017;28;20027;-45
2020/12/27 18:59:52;;;;;;;129.13;49.78;;;20.00;61.10;;;;;;5108836;28;20106;-42
2020/12/27 19:02:17;;;;;;;129.50;50.22;;;19.90;61.20;;;;;;5111938;28;20045;-47
2020/12/27 19:04:44;;;;;;;132.20;47.53;;;19.90;61.50;;;;;;5108890;28;20059;-45
2020/12/27 19:07:10;;;;;;;133.40;49.88;;;19.90;61.60;;;;;;5104482;28;20107;-44
2020/12/27 19:09:35;;;;;;;117.28;49.67;;;19.90;61.50;;;;;;5102792;28;20042;-43
2020/12/27 19:12:01;;;;;;;122.40;47.45;;;19.80;61.50;;;;;;5106221;27;20503;-42
2020/12/27 19:14:26;;;;;;;115.97;44.10;;;19.90;61.90;;;;;;5108527;27;20036;-41
2020/12/27 19:16:52;;;;;;;112.55;43.25;;;19.90;61.60;;;;;;5107637;27;20027;-42
2020/12/27 19:19:19;;;;;;;118.03;45.05;;;19.90;61.60;;;;;;5102518;27;20037;-41
2020/12/27 19:21:45;;;;;;;119.22;49.80;;;19.90;61.80;;;;;;5106177;27;20015;-39
2020/12/27 19:24:10;;;;;;;109.75;44.72;;;19.90;61.70;;;;;;5109250;27;20499;-43
2020/12/27 19:26:36;;;;;;;111.90;45.05;;;19.90;61.60;;;;;;5104371;27;20035;-42
2020/12/27 19:29:01;;;;;;;110.10;42.65;;;19.80;61.80;;;;;;5110207;27;20077;-44
2020/12/27 19:31:27;;;;;;;105.85;42.72;;;19.80;61.90;;;;;;5105893;27;20186;-42
2020/12/27 19:33:54;;;;;;;99.18;41.67;;;19.80;61.80;;;;;;5089278;27;20024;-42
2020/12/27 19:36:19;;;;;;;101.32;41.55;;;19.80;62.10;;;;;;5089364;27;20031;-44
2020/12/27 19:38:45;;;;;;;98.10;41.38;;;19.90;62.10;;;;;;5105292;27;20086;-43
2020/12/27 19:41:12;;;;;;;92.57;38.40;;;19.90;62.10;;;;;;5110054;27;20024;-41
2020/12/27 19:43:38;;;;;;;91.47;38.85;;;19.80;62.20;;;;;;5104342;27;20042;-48
2020/12/27 19:46:23;;;;;;;85.35;39.40;;;19.90;62.10;;;;;;5107823;27;20019;-49
2020/12/27 19:48:48;;;;;;;93.35;37.20;;;20.00;61.80;;;;;;5105347;27;20035;-51
2020/12/27 19:51:14;;;;;;;86.65;36.03;;;20.00;61.70;;;;;;5108755;27;20039;-49
2020/12/27 19:53:40;;;;;;;87.57;34.40;;;20.00;61.80;;;;;;5108248;27;20023;-43
2020/12/27 19:56:06;;;;;;;79.10;32.95;;;19.90;62.00;;;;;;5116249;27;20531;-48
2020/12/27 19:58:32;;;;;;;81.88;34.40;;;20.00;61.90;;;;;;5096195;27;20030;-43
2020/12/27 20:00:57;;;;;;;75.22;31.50;;;20.00;61.90;;;;;;5107677;27;20027;-39
2020/12/27 20:03:23;;;;;;;77.25;33.58;;;20.00;61.90;;;;;;5108098;27;20525;-47
2020/12/27 20:05:49;;;;;;;83.38;33.47;;;19.90;62.00;;;;;;5107258;27;20028;-47
2020/12/27 20:08:14;;;;;;;88.30;34.83;;;19.90;61.90;;;;;;5096862;27;20202;-50
2020/12/27 20:10:40;;;;;;;77.15;31.77;;;19.90;61.90;;;;;;5100896;27;20066;-51
2020/12/27 20:13:08;;;;;;;76.68;32.95;;;19.90;61.90;;;;;;4758844;27;10000464;-51
2020/12/27 20:15:43;;;;;;;72.50;31.65;;;19.90;61.70;;;;;;5101204;27;20043;-46
2020/12/27 20:18:08;;;;;;;76.20;29.25;;;19.90;62.10;;;;;;5111284;27;20027;-45
2020/12/27 20:20:37;;;;;;;73.03;31.35;;;19.90;62.10;;;;;;5110484;27;20054;-48
2020/12/27 20:23:03;;;;;;;70.20;30.20;;;20.00;61.80;;;;;;5114134;27;20116;-46
2020/12/27 20:25:28;;;;;;;66.82;28.52;;;20.00;61.70;;;;;;5104233;27;20674;-44
2020/12/27 20:27:54;;;;;;;62.55;27.70;;;19.90;62.20;;;;;;5087925;27;20067;-51
2020/12/27 20:30:20;;;;;;;68.55;28.02;;;19.90;61.90;;;;;;5100467;27;20093;-50
2020/12/27 20:32:45;;;;;;;62.85;27.67;;;19.80;61.90;;;;;;5108670;27;20165;-50
2020/12/27 20:35:11;;;;;;;59.10;26.75;;;19.70;62.10;;;;;;5102568;27;20516;-53
2020/12/27 20:37:36;;;;;;;63.20;27.58;;;19.70;62.30;;;;;;5113167;27;20027;-50
2020/12/27 20:40:06;;;;;;;62.33;26.00;;;19.60;62.50;;;;;;5106702;27;20039;-51
2020/12/27 20:42:31;;;;;;;60.28;26.33;;;19.60;62.50;;;;;;5087902;27;20058;-53
2020/12/27 20:44:57;;;;;;;64.45;24.90;;;19.60;62.60;;;;;;5109453;27;20210;-51
2020/12/27 20:47:23;;;;;;;53.70;23.63;;;19.50;62.70;;;;;;5106711;27;20106;-49
2020/12/27 20:49:49;;;;;;;59.55;25.88;;;19.50;62.80;;;;;;5112327;27;20055;-53
2020/12/27 20:52:14;;;;;;;55.42;25.00;;;19.50;63.10;;;;;;5087667;28;20050;-50
2020/12/27 20:54:40;;;;;;;57.20;26.35;;;19.50;63.10;;;;;;5105470;27;20031;-47
2020/12/27 20:57:05;;;;;;;49.25;22.73;;;19.40;63.00;;;;;;5104315;27;20542;-49
2020/12/27 20:59:31;;;;;;;54.00;24.30;;;19.40;63.20;;;;;;5105799;27;20028;-52
2020/12/27 21:01:56;;;;;;;53.58;22.70;;;19.40;63.40;;;;;;5108835;27;20019;-56
2020/12/27 21:04:22;;;;;;;46.08;20.85;;;19.30;63.50;;;;;;5110266;27;20043;-54
2020/12/27 21:06:51;;;;;;;57.08;22.48;;;19.30;63.70;;;;;;5099164;28;20023;-51
2020/12/27 21:09:17;;;;;;;43.97;20.08;;;19.20;63.80;;;;;;5090820;27;20135;-48
2020/12/27 21:11:44;;;;;;;46.83;21.67;;;19.20;64.20;;;;;;5110375;27;20068;-41
2020/12/27 21:14:10;;;;;;;47.47;19.23;;;19.10;64.40;;;;;;5107187;27;20119;-45
2020/12/27 21:16:35;;;;;;;47.53;20.80;;;19.10;64.40;;;;;;5106201;27;20200;-40
2020/12/27 21:19:01;;;;;;;43.97;20.45;;;19.20;64.50;;;;;;5106607;27;20035;-56
2020/12/27 21:21:26;;;;;;;39.88;18.95;;;19.10;64.70;;;;;;5108124;27;20035;-46
2020/12/27 21:23:52;;;;;;;41.30;19.52;;;19.10;65.60;;;;;;5106974;27;20683;-40
2020/12/27 21:26:18;;;;;;;46.50;19.90;;;19.10;65.00;;;;;;5110400;27;20031;-44
2020/12/27 21:28:43;;;;;;;44.38;19.02;;;19.10;64.90;;;;;;5105536;28;20031;-42
2020/12/27 21:31:09;;;;;;;39.38;18.60;;;19.10;65.70;;;;;;5110115;27;20165;-43
2020/12/27 21:33:34;;;;;;;40.08;17.48;;;19.00;65.00;;;;;;5105574;28;20073;-42
2020/12/27 21:36:00;;;;;;;32.22;16.60;;;19.00;65.00;;;;;;5106474;27;20028;-43
2020/12/27 21:38:25;;;;;;;34.78;16.02;;;19.00;65.20;;;;;;5108992;27;20043;-45
2020/12/27 21:40:51;;;;;;;35.50;16.73;;;18.90;65.20;;;;;;5088373;28;20063;-47
2020/12/27 21:43:17;;;;;;;31.27;16.65;;;18.90;65.30;;;;;;5107069;27;20042;-44
2020/12/27 21:45:42;;;;;;;37.08;16.40;;;18.90;65.30;;;;;;5107405;27;20071;-44
2020/12/27 21:48:08;;;;;;;27.63;14.38;;;18.90;65.40;;;;;;5108187;27;20035;-46
2020/12/27 21:50:33;;;;;;;34.80;15.73;;;18.90;65.40;;;;;;5108161;27;20547;-44
2020/12/27 21:52:59;;;;;;;31.60;15.38;;;18.90;65.50;;;;;;5106615;28;20069;-46
2020/12/27 21:55:25;;;;;;;29.02;14.55;;;18.80;65.50;;;;;;5106348;27;20028;-44
2020/12/27 21:57:50;;;;;;;27.42;13.75;;;18.80;65.60;;;;;;5102285;28;20076;-43
2020/12/27 22:00:16;;;;;;;31.52;15.02;;;18.80;65.50;;;;;;5106532;27;20031;-42
2020/12/27 22:02:41;;;;;;;29.02;13.27;;;18.80;65.50;;;;;;5113093;27;20407;-42
2020/12/27 22:05:07;;;;;;;26.95;12.90;;;18.70;65.50;;;;;;5105054;28;20031;-42
2020/12/27 22:07:36;;;;;;;27.10;13.52;;;18.70;65.60;;;;;;5105559;27;20503;-43
2020/12/27 22:10:03;;;;;;;26.63;12.57;;;18.70;66.40;;;;;;5106846;27;20422;-44
2020/12/27 22:12:28;;;;;;;25.38;13.20;;;18.70;66.40;;;;;;5104761;27;20091;-44
2020/12/27 22:14:54;;;;;;;26.33;12.27;;;18.70;65.80;;;;;;5104273;28;20031;-40
2020/12/27 22:17:19;;;;;;;28.17;12.90;;;18.70;66.10;;;;;;5109288;27;20113;-45
2020/12/27 22:19:45;;;;;;;24.02;11.70;;;18.80;66.20;;;;;;5112092;27;20514;-43
2020/12/27 22:22:11;;;;;;;25.10;11.85;;;18.80;65.90;;;;;;5109581;27;20039;-41
2020/12/27 22:24:36;;;;;;;25.38;12.55;;;18.90;65.90;;;;;;5114507;27;20027;-46
2020/12/27 22:27:02;;;;;;;25.20;11.52;;;18.90;65.70;;;;;;5111413;27;20107;-42
2020/12/27 22:29:29;;;;;;;22.10;11.73;;;18.90;65.80;;;;;;5093808;27;20032;-42
2020/12/27 22:31:55;;;;;;;24.65;11.32;;;18.90;65.80;;;;;;5108605;27;20126;-41
2020/12/27 22:34:20;;;;;;;26.77;10.43;;;18.90;65.70;;;;;;5113704;27;20133;-42
2020/12/27 22:36:46;;;;;;;21.65;11.23;;;18.90;65.70;;;;;;5108724;27;20028;-43
2020/12/27 22:39:11;;;;;;;20.15;10.27;;;18.90;65.80;;;;;;5111957;27;20378;-41
2020/12/27 22:41:37;;;;;;;19.52;10.55;;;18.90;65.80;;;;;;5095571;27;20514;-43
2020/12/27 22:44:03;;;;;;;19.83;10.02;;;18.90;65.70;;;;;;5108519;27;20026;-42
2020/12/27 22:46:28;;;;;;;21.20;9.95;;;18.90;65.60;;;;;;5113553;27;20479;-42
2020/12/27 22:48:54;;;;;;;16.73;9.77;;;18.90;65.70;;;;;;5108853;28;20036;-42
2020/12/27 22:51:19;;;;;;;17.80;8.80;;;18.90;65.50;;;;;;5096103;28;20067;-43
2020/12/27 22:53:45;;;;;;;20.13;9.10;;;18.90;65.60;;;;;;5112914;28;20494;-43
